sensor_id;sensor_type;location;lat;lon;timestamp;pressure;altitude;pressure_sealevel;temperature;humidity
13800;BME280;6971;50.028;9.258;2023-07-02T00:04:10;98674.97;;;15.63;100.00
13800;BME280;6971;50.028;9.258;2023-07-02T00:09:14;98683.94;;;15.62;100.00
13800;BME280;6971;50.028;9.258;2023-07-02T00:14:15;98681.53;;;15.59;100.00
13800;BME280;6971;50.028;9.258;2023-07-02T00:19:16;98682.91;;;15.53;100.00
13800;BME280;6971;50.028;9.258;2023-07-02T00:24:16;98689.06;;;15.53;100.00
13800;BME280;6971;50.028;9.258;2023-07-02T00:29:16;98701.63;;;15.51;100.00
13800;BME280;6971;50.028;9.258;2023-07-02T00:34:18;98686.66;;;15.50;100.00
13800;BME280;6971;50.028;9.258;2023-07-02T00:39:18;98690.69;;;15.45;100.00
13800;BME280;6971;50.028;9.258;2023-07-02T00:44:18;98696.09;;;15.33;100.00
13800;BME280;6971;50.028;9.258;2023-07-02T00:49:19;98698.78;;;15.43;100.00
13800;BME280;6971;50.028;9.258;2023-07-02T00:54:19;98690.13;;;15.41;100.00
13800;BME280;6971;50.028;9.258;2023-07-02T00:59:20;98694.00;;;15.37;100.00
13800;BME280;6971;50.028;9.258;2023-07-02T01:04:20;98700.50;;;15.23;100.00
13800;BME280;6971;50.028;9.258;2023-07-02T01:09:27;98696.09;;;15.12;100.00
13800;BME280;6971;50.028;9.258;2023-07-02T01:14:32;98703.41;;;14.98;100.00
13800;BME280;6971;50.028;9.258;2023-07-02T01:24:43;98702.78;;;14.73;100.00
13800;BME280;6971;50.028;9.258;2023-07-02T01:29:43;98708.00;;;14.64;100.00
13800;BME280;6971;50.028;9.258;2023-07-02T01:34:46;98707.22;;;14.52;100.00
13800;BME280;6971;50.028;9.258;2023-07-02T01:39:49;98715.50;;;14.58;100.00
13800;BME280;6971;50.028;9.258;2023-07-02T01:44:49;98708.78;;;14.54;100.00
13800;BME280;6971;50.028;9.258;2023-07-02T01:49:51;98709.78;;;14.42;100.00
13800;BME280;6971;50.028;9.258;2023-07-02T01:54:51;98710.44;;;14.22;100.00
13800;BME280;6971;50.028;9.258;2023-07-02T01:59:52;98706.72;;;14.14;100.00
13800;BME280;6971;50.028;9.258;2023-07-02T02:04:52;98715.75;;;14.00;100.00
13800;BME280;6971;50.028;9.258;2023-07-02T02:09:53;98723.63;;;13.78;100.00
13800;BME280;6971;50.028;9.258;2023-07-02T02:14:55;98724.56;;;13.77;100.00
13800;BME280;6971;50.028;9.258;2023-07-02T02:19:56;98731.06;;;13.84;100.00
13800;BME280;6971;50.028;9.258;2023-07-02T02:24:56;98727.91;;;13.91;100.00
13800;BME280;6971;50.028;9.258;2023-07-02T02:29:56;98727.09;;;13.67;100.00
13800;BME280;6971;50.028;9.258;2023-07-02T02:34:57;98721.44;;;13.61;100.00
13800;BME280;6971;50.028;9.258;2023-07-02T02:39:57;98717.69;;;13.40;100.00
13800;BME280;6971;50.028;9.258;2023-07-02T02:44:58;98705.84;;;13.22;100.00
13800;BME280;6971;50.028;9.258;2023-07-02T02:49:59;98711.78;;;12.89;100.00
13800;BME280;6971;50.028;9.258;2023-07-02T02:54:59;98730.94;;;12.69;100.00
13800;BME280;6971;50.028;9.258;2023-07-02T02:59:59;98736.09;;;12.70;100.00
13800;BME280;6971;50.028;9.258;2023-07-02T03:05:00;98745.22;;;12.66;100.00
13800;BME280;6971;50.028;9.258;2023-07-02T03:10:03;98749.41;;;12.57;100.00
13800;BME280;6971;50.028;9.258;2023-07-02T03:15:04;98745.22;;;12.42;100.00
13800;BME280;6971;50.028;9.258;2023-07-02T03:20:05;98756.84;;;12.39;100.00
13800;BME280;6971;50.028;9.258;2023-07-02T03:25:08;98749.94;;;12.25;100.00
13800;BME280;6971;50.028;9.258;2023-07-02T03:30:09;98758.50;;;12.16;100.00
13800;BME280;6971;50.028;9.258;2023-07-02T03:35:09;98756.06;;;12.25;100.00
13800;BME280;6971;50.028;9.258;2023-07-02T03:40:09;98757.50;;;12.43;100.00
13800;BME280;6971;50.028;9.258;2023-07-02T03:45:10;98766.22;;;12.56;100.00
13800;BME280;6971;50.028;9.258;2023-07-02T03:50:10;98772.50;;;12.66;100.00
13800;BME280;6971;50.028;9.258;2023-07-02T03:55:11;98777.72;;;12.79;100.00
13800;BME280;6971;50.028;9.258;2023-07-02T04:00:12;98784.31;;;12.74;100.00
13800;BME280;6971;50.028;9.258;2023-07-02T04:05:12;98783.53;;;12.85;100.00
13800;BME280;6971;50.028;9.258;2023-07-02T04:10:12;98799.03;;;12.89;100.00
13800;BME280;6971;50.028;9.258;2023-07-02T04:15:13;98805.81;;;12.93;100.00
13800;BME280;6971;50.028;9.258;2023-07-02T04:20:13;98811.97;;;13.05;100.00
13800;BME280;6971;50.028;9.258;2023-07-02T04:25:14;98813.91;;;13.03;100.00
13800;BME280;6971;50.028;9.258;2023-07-02T04:30:15;98815.47;;;13.06;100.00
13800;BME280;6971;50.028;9.258;2023-07-02T04:35:15;98821.25;;;13.11;100.00
13800;BME280;6971;50.028;9.258;2023-07-02T04:40:16;98820.34;;;13.24;100.00
13800;BME280;6971;50.028;9.258;2023-07-02T04:45:16;98827.38;;;13.36;100.00
13800;BME280;6971;50.028;9.258;2023-07-02T04:50:17;98813.66;;;13.42;100.00
13800;BME280;6971;50.028;9.258;2023-07-02T04:55:18;98823.91;;;13.47;100.00
13800;BME280;6971;50.028;9.258;2023-07-02T05:00:18;98819.47;;;13.48;100.00
13800;BME280;6971;50.028;9.258;2023-07-02T05:05:19;98826.72;;;13.57;100.00
13800;BME280;6971;50.028;9.258;2023-07-02T05:10:19;98834.44;;;13.60;100.00
13800;BME280;6971;50.028;9.258;2023-07-02T05:15:19;98842.53;;;13.70;100.00
13800;BME280;6971;50.028;9.258;2023-07-02T05:20:20;98842.78;;;13.90;100.00
13800;BME280;6971;50.028;9.258;2023-07-02T05:25:20;98855.47;;;14.20;100.00
13800;BME280;6971;50.028;9.258;2023-07-02T05:30:23;98865.31;;;14.41;100.00
13800;BME280;6971;50.028;9.258;2023-07-02T05:35:23;98864.09;;;14.57;100.00
13800;BME280;6971;50.028;9.258;2023-07-02T05:40:24;98870.84;;;14.61;98.94
13800;BME280;6971;50.028;9.258;2023-07-02T05:45:24;98869.28;;;14.81;96.35
13800;BME280;6971;50.028;9.258;2023-07-02T05:50:30;98878.06;;;14.93;93.84
13800;BME280;6971;50.028;9.258;2023-07-02T05:55:30;98879.72;;;14.94;91.74
13800;BME280;6971;50.028;9.258;2023-07-02T06:00:30;98882.31;;;15.17;95.01
13800;BME280;6971;50.028;9.258;2023-07-02T06:05:30;98885.09;;;15.48;89.46
13800;BME280;6971;50.028;9.258;2023-07-02T06:10:31;98893.03;;;15.48;86.27
13800;BME280;6971;50.028;9.258;2023-07-02T06:15:31;98898.22;;;15.29;85.75
13800;BME280;6971;50.028;9.258;2023-07-02T06:20:32;98902.19;;;15.34;86.73
13800;BME280;6971;50.028;9.258;2023-07-02T06:25:32;98918.69;;;15.38;87.65
13800;BME280;6971;50.028;9.258;2023-07-02T06:30:32;98907.31;;;15.47;87.87
13800;BME280;6971;50.028;9.258;2023-07-02T06:35:32;98902.00;;;15.47;87.29
13800;BME280;6971;50.028;9.258;2023-07-02T06:40:33;98912.81;;;15.56;86.43
13800;BME280;6971;50.028;9.258;2023-07-02T06:45:36;98916.28;;;15.89;86.58
13800;BME280;6971;50.028;9.258;2023-07-02T06:50:37;98917.41;;;15.86;85.73
13800;BME280;6971;50.028;9.258;2023-07-02T06:55:37;98917.84;;;15.91;86.20
13800;BME280;6971;50.028;9.258;2023-07-02T07:00:38;98924.09;;;16.02;84.66
13800;BME280;6971;50.028;9.258;2023-07-02T07:05:38;98918.00;;;15.78;83.72
13800;BME280;6971;50.028;9.258;2023-07-02T07:10:38;98934.16;;;15.87;84.88
13800;BME280;6971;50.028;9.258;2023-07-02T07:15:39;98923.13;;;15.70;85.62
13800;BME280;6971;50.028;9.258;2023-07-02T07:20:43;98920.78;;;15.77;86.08
13800;BME280;6971;50.028;9.258;2023-07-02T07:25:44;98922.44;;;15.89;84.43
13800;BME280;6971;50.028;9.258;2023-07-02T07:30:45;98909.50;;;16.17;82.64
13800;BME280;6971;50.028;9.258;2023-07-02T07:35:45;98926.47;;;16.26;82.75
13800;BME280;6971;50.028;9.258;2023-07-02T07:40:45;98925.56;;;16.16;82.16
13800;BME280;6971;50.028;9.258;2023-07-02T07:45:46;98928.94;;;16.18;82.92
13800;BME280;6971;50.028;9.258;2023-07-02T07:50:46;98929.34;;;16.13;83.26
13800;BME280;6971;50.028;9.258;2023-07-02T07:55:46;98937.28;;;16.66;80.97
13800;BME280;6971;50.028;9.258;2023-07-02T08:00:47;98943.78;;;17.44;78.93
13800;BME280;6971;50.028;9.258;2023-07-02T08:05:47;98952.03;;;17.31;76.97
13800;BME280;6971;50.028;9.258;2023-07-02T08:10:47;98950.09;;;16.92;77.18
13800;BME280;6971;50.028;9.258;2023-07-02T08:15:50;98957.66;;;16.87;78.73
13800;BME280;6971;50.028;9.258;2023-07-02T08:20:50;98961.38;;;17.05;80.01
13800;BME280;6971;50.028;9.258;2023-07-02T08:25:50;98970.84;;;16.88;79.72
13800;BME280;6971;50.028;9.258;2023-07-02T08:30:50;98982.53;;;16.44;77.82
13800;BME280;6971;50.028;9.258;2023-07-02T08:35:51;98971.59;;;16.69;78.72
13800;BME280;6971;50.028;9.258;2023-07-02T08:40:52;98984.34;;;18.55;71.52
13800;BME280;6971;50.028;9.258;2023-07-02T08:45:53;98985.34;;;18.53;70.13
13800;BME280;6971;50.028;9.258;2023-07-02T08:50:55;98983.72;;;18.23;70.65
13800;BME280;6971;50.028;9.258;2023-07-02T08:55:56;98986.91;;;18.46;69.59
13800;BME280;6971;50.028;9.258;2023-07-02T09:01:06;98991.50;;;19.85;65.30
13800;BME280;6971;50.028;9.258;2023-07-02T09:06:11;98983.94;;;19.80;64.62
13800;BME280;6971;50.028;9.258;2023-07-02T09:11:15;98979.50;;;20.07;62.83
13800;BME280;6971;50.028;9.258;2023-07-02T09:16:26;98981.03;;;20.09;61.17
13800;BME280;6971;50.028;9.258;2023-07-02T09:21:37;98988.31;;;21.13;58.15
13800;BME280;6971;50.028;9.258;2023-07-02T09:26:37;98987.63;;;22.04;56.38
13800;BME280;6971;50.028;9.258;2023-07-02T09:31:48;98979.63;;;21.20;56.79
13800;BME280;6971;50.028;9.258;2023-07-02T09:36:48;98981.41;;;21.03;55.32
13800;BME280;6971;50.028;9.258;2023-07-02T09:41:49;98977.34;;;21.67;55.89
13800;BME280;6971;50.028;9.258;2023-07-02T09:46:58;98974.50;;;21.60;55.01
13800;BME280;6971;50.028;9.258;2023-07-02T09:52:06;98977.22;;;21.00;56.89
13800;BME280;6971;50.028;9.258;2023-07-02T09:57:06;98973.13;;;21.31;54.91
13800;BME280;6971;50.028;9.258;2023-07-02T10:02:09;98957.47;;;20.13;56.87
13800;BME280;6971;50.028;9.258;2023-07-02T10:07:10;98971.34;;;19.54;55.99
13800;BME280;6971;50.028;9.258;2023-07-02T10:12:30;98968.22;;;19.77;56.64
13800;BME280;6971;50.028;9.258;2023-07-02T10:17:32;98970.13;;;21.42;52.68
13800;BME280;6971;50.028;9.258;2023-07-02T10:22:46;98972.84;;;21.59;53.33
13800;BME280;6971;50.028;9.258;2023-07-02T10:27:47;98965.06;;;20.18;55.11
13800;BME280;6971;50.028;9.258;2023-07-02T10:32:50;98975.84;;;20.88;54.38
13800;BME280;6971;50.028;9.258;2023-07-02T10:37:50;98969.06;;;20.75;51.94
13800;BME280;6971;50.028;9.258;2023-07-02T10:42:52;98966.88;;;20.79;52.43
13800;BME280;6971;50.028;9.258;2023-07-02T10:47:53;98981.34;;;20.59;53.56
13800;BME280;6971;50.028;9.258;2023-07-02T10:52:55;98971.94;;;20.82;51.79
13800;BME280;6971;50.028;9.258;2023-07-02T10:58:07;98967.97;;;21.71;50.30
13800;BME280;6971;50.028;9.258;2023-07-02T11:03:16;98974.22;;;22.13;50.11
13800;BME280;6971;50.028;9.258;2023-07-02T11:08:17;98976.47;;;21.33;50.84
13800;BME280;6971;50.028;9.258;2023-07-02T11:13:19;98971.66;;;21.53;49.83
13800;BME280;6971;50.028;9.258;2023-07-02T11:18:20;98975.94;;;20.78;51.38
13800;BME280;6971;50.028;9.258;2023-07-02T11:23:23;98966.69;;;20.37;52.82
13800;BME280;6971;50.028;9.258;2023-07-02T11:28:24;98971.50;;;22.54;49.54
13800;BME280;6971;50.028;9.258;2023-07-02T11:33:37;98958.00;;;21.13;50.39
13800;BME280;6971;50.028;9.258;2023-07-02T11:38:37;98962.91;;;20.83;51.46
13800;BME280;6971;50.028;9.258;2023-07-02T11:43:37;98960.06;;;21.28;50.93
13800;BME280;6971;50.028;9.258;2023-07-02T11:48:38;98975.72;;;22.07;48.44
13800;BME280;6971;50.028;9.258;2023-07-02T11:53:39;98966.94;;;22.38;48.00
13800;BME280;6971;50.028;9.258;2023-07-02T11:58:41;98981.22;;;21.64;49.50
13800;BME280;6971;50.028;9.258;2023-07-02T12:03:43;98968.34;;;22.09;49.77
13800;BME280;6971;50.028;9.258;2023-07-02T12:08:44;98950.06;;;22.78;46.39
13800;BME280;6971;50.028;9.258;2023-07-02T12:13:45;98984.06;;;23.02;46.40
13800;BME280;6971;50.028;9.258;2023-07-02T12:18:45;98972.97;;;24.07;44.56
13800;BME280;6971;50.028;9.258;2023-07-02T12:23:46;98981.19;;;22.64;44.56
13800;BME280;6971;50.028;9.258;2023-07-02T12:28:46;98961.59;;;22.95;43.27
13800;BME280;6971;50.028;9.258;2023-07-02T12:33:47;98969.78;;;22.62;45.34
13800;BME280;6971;50.028;9.258;2023-07-02T12:38:47;98957.91;;;22.39;47.21
13800;BME280;6971;50.028;9.258;2023-07-02T12:43:47;98926.44;;;22.73;43.92
13800;BME280;6971;50.028;9.258;2023-07-02T12:48:47;98952.31;;;22.66;44.84
13800;BME280;6971;50.028;9.258;2023-07-02T12:53:48;98970.13;;;22.50;44.66
13800;BME280;6971;50.028;9.258;2023-07-02T12:58:48;98972.81;;;22.50;45.13
13800;BME280;6971;50.028;9.258;2023-07-02T13:03:49;98973.84;;;23.84;43.25
13800;BME280;6971;50.028;9.258;2023-07-02T13:08:49;98968.88;;;23.73;42.74
13800;BME280;6971;50.028;9.258;2023-07-02T13:13:49;98974.34;;;22.45;44.89
13800;BME280;6971;50.028;9.258;2023-07-02T13:18:50;98975.06;;;22.22;44.82
13800;BME280;6971;50.028;9.258;2023-07-02T13:23:50;98974.97;;;22.47;45.07
13800;BME280;6971;50.028;9.258;2023-07-02T13:28:50;98996.03;;;22.91;43.17
13800;BME280;6971;50.028;9.258;2023-07-02T13:33:51;98997.50;;;23.02;42.98
13800;BME280;6971;50.028;9.258;2023-07-02T13:38:51;98992.25;;;23.09;43.59
13800;BME280;6971;50.028;9.258;2023-07-02T13:43:51;98993.94;;;22.62;44.09
13800;BME280;6971;50.028;9.258;2023-07-02T13:48:52;98976.75;;;22.79;43.96
13800;BME280;6971;50.028;9.258;2023-07-02T13:53:52;98996.00;;;21.76;45.24
13800;BME280;6971;50.028;9.258;2023-07-02T14:03:56;98997.34;;;22.95;43.19
13800;BME280;6971;50.028;9.258;2023-07-02T14:08:56;98997.59;;;22.77;43.66
13800;BME280;6971;50.028;9.258;2023-07-02T14:13:56;98994.63;;;22.55;44.05
13800;BME280;6971;50.028;9.258;2023-07-02T14:18:57;98990.91;;;22.65;43.03
13800;BME280;6971;50.028;9.258;2023-07-02T14:23:58;98980.41;;;23.27;41.68
13800;BME280;6971;50.028;9.258;2023-07-02T14:28:59;98989.59;;;22.61;41.64
13800;BME280;6971;50.028;9.258;2023-07-02T14:33:59;98989.03;;;22.74;42.47
13800;BME280;6971;50.028;9.258;2023-07-02T14:38:59;98991.56;;;22.67;42.69
13800;BME280;6971;50.028;9.258;2023-07-02T14:44:00;98990.88;;;22.81;42.02
13800;BME280;6971;50.028;9.258;2023-07-02T14:49:00;98986.47;;;22.89;40.62
13800;BME280;6971;50.028;9.258;2023-07-02T14:54:01;98994.88;;;22.86;41.30
13800;BME280;6971;50.028;9.258;2023-07-02T14:59:04;98990.09;;;22.56;40.79
13800;BME280;6971;50.028;9.258;2023-07-02T15:04:04;98983.72;;;22.40;40.41
13800;BME280;6971;50.028;9.258;2023-07-02T15:09:04;98976.16;;;22.44;41.17
13800;BME280;6971;50.028;9.258;2023-07-02T15:14:07;98984.59;;;22.24;41.68
13800;BME280;6971;50.028;9.258;2023-07-02T15:19:07;98981.91;;;22.98;40.68
13800;BME280;6971;50.028;9.258;2023-07-02T15:24:08;98989.22;;;22.72;41.15
13800;BME280;6971;50.028;9.258;2023-07-02T15:29:10;98986.41;;;22.57;41.03
13800;BME280;6971;50.028;9.258;2023-07-02T15:34:11;98977.50;;;23.05;40.24
13800;BME280;6971;50.028;9.258;2023-07-02T15:39:14;98973.94;;;22.73;40.93
13800;BME280;6971;50.028;9.258;2023-07-02T15:44:20;98974.34;;;22.45;41.33
13800;BME280;6971;50.028;9.258;2023-07-02T15:49:21;98965.09;;;22.47;41.32
13800;BME280;6971;50.028;9.258;2023-07-02T15:54:22;98973.16;;;22.39;41.10
13800;BME280;6971;50.028;9.258;2023-07-02T15:59:22;98974.84;;;22.32;40.80
13800;BME280;6971;50.028;9.258;2023-07-02T16:04:23;98974.69;;;22.33;41.35
13800;BME280;6971;50.028;9.258;2023-07-02T16:09:25;98983.44;;;22.19;41.88
13800;BME280;6971;50.028;9.258;2023-07-02T16:14:26;98980.59;;;21.87;41.58
13800;BME280;6971;50.028;9.258;2023-07-02T16:19:26;98973.00;;;21.65;41.88
13800;BME280;6971;50.028;9.258;2023-07-02T16:24:30;98973.06;;;21.74;42.43
13800;BME280;6971;50.028;9.258;2023-07-02T16:29:31;98965.84;;;21.91;42.06
13800;BME280;6971;50.028;9.258;2023-07-02T16:34:34;98964.94;;;22.40;41.83
13800;BME280;6971;50.028;9.258;2023-07-02T16:39:34;98977.22;;;22.26;41.22
13800;BME280;6971;50.028;9.258;2023-07-02T16:44:34;98974.56;;;22.10;41.98
13800;BME280;6971;50.028;9.258;2023-07-02T16:49:35;98961.97;;;22.19;41.76
13800;BME280;6971;50.028;9.258;2023-07-02T16:54:38;98969.53;;;22.23;41.66
13800;BME280;6971;50.028;9.258;2023-07-02T16:59:38;98977.88;;;22.45;41.82
13800;BME280;6971;50.028;9.258;2023-07-02T17:04:38;98969.84;;;22.20;41.88
13800;BME280;6971;50.028;9.258;2023-07-02T17:09:41;98970.16;;;21.67;41.77
13800;BME280;6971;50.028;9.258;2023-07-02T17:14:47;98980.88;;;21.67;40.85
13800;BME280;6971;50.028;9.258;2023-07-02T17:19:49;98971.84;;;21.68;41.52
13800;BME280;6971;50.028;9.258;2023-07-02T17:24:51;98966.34;;;21.86;41.46
13800;BME280;6971;50.028;9.258;2023-07-02T17:30:00;98967.19;;;21.78;41.65
13800;BME280;6971;50.028;9.258;2023-07-02T17:35:01;98962.50;;;21.81;41.91
13800;BME280;6971;50.028;9.258;2023-07-02T17:40:01;98962.81;;;21.77;42.74
13800;BME280;6971;50.028;9.258;2023-07-02T17:45:02;98962.97;;;21.59;42.54
13800;BME280;6971;50.028;9.258;2023-07-02T17:50:03;98962.13;;;21.67;42.85
13800;BME280;6971;50.028;9.258;2023-07-02T17:55:05;98965.34;;;21.79;43.48
13800;BME280;6971;50.028;9.258;2023-07-02T18:00:07;98961.78;;;21.70;43.01
13800;BME280;6971;50.028;9.258;2023-07-02T18:05:08;98961.09;;;21.51;42.90
13800;BME280;6971;50.028;9.258;2023-07-02T18:10:08;98955.00;;;21.24;43.71
13800;BME280;6971;50.028;9.258;2023-07-02T18:15:09;98949.59;;;20.99;43.72
13800;BME280;6971;50.028;9.258;2023-07-02T18:20:11;98951.28;;;21.00;43.88
13800;BME280;6971;50.028;9.258;2023-07-02T18:25:15;98956.53;;;20.84;44.83
13800;BME280;6971;50.028;9.258;2023-07-02T18:30:15;98957.16;;;20.69;45.38
13800;BME280;6971;50.028;9.258;2023-07-02T18:35:15;98959.38;;;20.47;45.22
13800;BME280;6971;50.028;9.258;2023-07-02T18:40:16;98962.00;;;20.39;45.52
13800;BME280;6971;50.028;9.258;2023-07-02T18:45:22;98956.72;;;20.21;45.75
13800;BME280;6971;50.028;9.258;2023-07-02T18:50:22;98958.28;;;20.05;45.69
13800;BME280;6971;50.028;9.258;2023-07-02T18:55:23;98960.03;;;19.96;46.30
13800;BME280;6971;50.028;9.258;2023-07-02T19:00:23;98970.97;;;19.85;46.30
13800;BME280;6971;50.028;9.258;2023-07-02T19:05:23;98965.69;;;19.75;46.73
13800;BME280;6971;50.028;9.258;2023-07-02T19:10:24;98965.94;;;19.64;47.08
13800;BME280;6971;50.028;9.258;2023-07-02T19:15:27;98966.38;;;19.59;47.52
13800;BME280;6971;50.028;9.258;2023-07-02T19:20:28;98966.84;;;19.36;48.03
13800;BME280;6971;50.028;9.258;2023-07-02T19:25:29;98971.41;;;19.26;47.53
13800;BME280;6971;50.028;9.258;2023-07-02T19:30:29;98972.47;;;19.15;48.25
13800;BME280;6971;50.028;9.258;2023-07-02T19:35:30;98973.81;;;18.91;51.02
13800;BME280;6971;50.028;9.258;2023-07-02T19:40:30;98969.19;;;18.55;54.05
13800;BME280;6971;50.028;9.258;2023-07-02T19:45:30;98975.91;;;18.11;57.46
13800;BME280;6971;50.028;9.258;2023-07-02T19:50:31;98985.72;;;17.81;59.21
13800;BME280;6971;50.028;9.258;2023-07-02T19:55:32;98987.22;;;17.44;61.44
13800;BME280;6971;50.028;9.258;2023-07-02T20:00:33;98990.03;;;16.92;64.02
13800;BME280;6971;50.028;9.258;2023-07-02T20:05:33;99000.84;;;16.69;64.12
13800;BME280;6971;50.028;9.258;2023-07-02T20:10:36;98999.72;;;16.40;65.12
13800;BME280;6971;50.028;9.258;2023-07-02T20:15:37;99017.56;;;16.28;65.60
13800;BME280;6971;50.028;9.258;2023-07-02T20:20:37;99012.44;;;15.94;67.43
13800;BME280;6971;50.028;9.258;2023-07-02T20:25:38;99001.59;;;15.74;68.59
13800;BME280;6971;50.028;9.258;2023-07-02T20:30:38;99006.41;;;15.48;70.04
13800;BME280;6971;50.028;9.258;2023-07-02T20:35:42;99014.25;;;15.38;70.89
13800;BME280;6971;50.028;9.258;2023-07-02T20:40:42;99012.03;;;14.99;73.12
13800;BME280;6971;50.028;9.258;2023-07-02T20:45:43;99013.72;;;14.77;74.53
13800;BME280;6971;50.028;9.258;2023-07-02T20:50:43;99012.13;;;14.74;74.95
13800;BME280;6971;50.028;9.258;2023-07-02T20:55:52;99009.09;;;14.56;76.24
13800;BME280;6971;50.028;9.258;2023-07-02T21:01:06;99014.16;;;14.59;76.63
13800;BME280;6971;50.028;9.258;2023-07-02T21:06:08;99016.31;;;14.54;76.62
13800;BME280;6971;50.028;9.258;2023-07-02T21:11:09;99022.47;;;14.55;77.45
13800;BME280;6971;50.028;9.258;2023-07-02T21:16:09;99033.91;;;14.55;76.68
13800;BME280;6971;50.028;9.258;2023-07-02T21:21:10;99040.53;;;14.49;78.57
13800;BME280;6971;50.028;9.258;2023-07-02T21:26:10;99041.03;;;14.66;78.20
13800;BME280;6971;50.028;9.258;2023-07-02T21:31:14;99039.59;;;14.62;78.78
13800;BME280;6971;50.028;9.258;2023-07-02T21:36:14;99047.78;;;14.47;79.42
13800;BME280;6971;50.028;9.258;2023-07-02T21:41:15;99039.06;;;14.45;80.54
13800;BME280;6971;50.028;9.258;2023-07-02T21:46:17;99042.91;;;14.41;80.84
13800;BME280;6971;50.028;9.258;2023-07-02T21:51:18;99043.41;;;14.35;82.26
13800;BME280;6971;50.028;9.258;2023-07-02T21:56:19;99039.34;;;14.42;82.18
13800;BME280;6971;50.028;9.258;2023-07-02T22:01:25;99042.16;;;14.28;82.81
13800;BME280;6971;50.028;9.258;2023-07-02T22:06:26;99044.31;;;14.11;84.49
13800;BME280;6971;50.028;9.258;2023-07-02T22:11:26;99041.09;;;13.94;86.26
13800;BME280;6971;50.028;9.258;2023-07-02T22:16:30;99043.00;;;13.92;87.35
13800;BME280;6971;50.028;9.258;2023-07-02T22:21:30;99044.94;;;13.90;88.12
13800;BME280;6971;50.028;9.258;2023-07-02T22:26:31;99040.88;;;13.98;87.30
13800;BME280;6971;50.028;9.258;2023-07-02T22:31:31;99048.38;;;14.04;87.04
13800;BME280;6971;50.028;9.258;2023-07-02T22:36:31;99047.63;;;14.02;87.52
13800;BME280;6971;50.028;9.258;2023-07-02T22:41:32;99044.38;;;13.98;88.10
13800;BME280;6971;50.028;9.258;2023-07-02T22:46:32;99042.31;;;14.02;88.03
13800;BME280;6971;50.028;9.258;2023-07-02T22:51:32;99045.94;;;14.01;88.57
13800;BME280;6971;50.028;9.258;2023-07-02T22:56:33;99037.72;;;13.92;90.02
13800;BME280;6971;50.028;9.258;2023-07-02T23:01:33;99031.88;;;13.76;92.20
13800;BME280;6971;50.028;9.258;2023-07-02T23:06:33;99033.84;;;13.61;92.53
13800;BME280;6971;50.028;9.258;2023-07-02T23:11:34;99022.22;;;13.50;93.93
13800;BME280;6971;50.028;9.258;2023-07-02T23:16:34;99026.88;;;13.47;95.47
13800;BME280;6971;50.028;9.258;2023-07-02T23:21:35;99020.31;;;13.39;95.49
13800;BME280;6971;50.028;9.258;2023-07-02T23:26:35;99034.88;;;13.34;95.34
13800;BME280;6971;50.028;9.258;2023-07-02T23:31:38;99022.75;;;13.05;97.94
13800;BME280;6971;50.028;9.258;2023-07-02T23:36:38;99023.06;;;13.00;99.60
13800;BME280;6971;50.028;9.258;2023-07-02T23:41:39;99018.66;;;13.01;98.77
13800;BME280;6971;50.028;9.258;2023-07-02T23:46:39;99017.88;;;12.99;99.10
13800;BME280;6971;50.028;9.258;2023-07-02T23:51:39;99014.09;;;12.77;100.00
13800;BME280;6971;50.028;9.258;2023-07-02T23:56:39;99015.16;;;12.74;100.00
